WetterOnline ( https://www.wetteronline.de )

Wetter aktuell Fehmarn

Aktuelles Wetter: Westermarkelsdorf (9m)

6-stündlich | Neueste Meldungen
Ortszeit Temperatur Wetter
Mi, 22.05. 20:00 12.9° C wolkenlos
Mi, 22.05. 14:00 11.7° C bedeckt
Mi, 22.05. 8:00 11.5° C Sprühregen
Mi, 22.05. 2:00 12.3° C Sprühregen
Di, 21.05. 20:00 13.5° C bedeckt
Di, 21.05. 14:00 14.0° C bedeckt
Di, 21.05. 8:00 12.7° C bewölkt
Di, 21.05. 2:00 14.3° C leichter Regen
Ortszeit Temperatur Wetter
Do, 23.05. 1:00 11.3° C leicht bewölkt
Do, 23.05. 0:50 11.3° C leicht bewölkt
Do, 23.05. 0:40 11.2° C leicht bewölkt
Do, 23.05. 0:30 11.4° C leicht bewölkt
Do, 23.05. 0:20 11.4° C leicht bewölkt
Do, 23.05. 0:10 11.4° C leicht bewölkt
Do, 23.05. 0:00 11.5° C fast wolkenlos
Mi, 22.05. 23:30 11.6° C wolkenlos
Mi, 22.05. 23:00 11.7° C wolkenlos
Mi, 22.05. 22:30 11.7° C wolkenlos
Mi, 22.05. 22:00 11.9° C wolkenlos
Ortszeit Relative Feuchte Sichtweite
Mi, 22.05. 20:00 75% 7 km
Mi, 22.05. 14:00 89% 10 km
Mi, 22.05. 8:00 94% 4.5 km
Mi, 22.05. 2:00 98% 1.3 km
Di, 21.05. 20:00 94% 4.2 km
Di, 21.05. 14:00 91% 8 km
Di, 21.05. 8:00 94% 11 km
Di, 21.05. 2:00 90% 9 km
Ortszeit Relative Feuchte Sichtweite
Do, 23.05. 1:00 78% 50 km
Do, 23.05. 0:50 78% -
Do, 23.05. 0:40 81% -
Do, 23.05. 0:30 80% 40 km
Do, 23.05. 0:20 80% -
Do, 23.05. 0:10 79% -
Do, 23.05. 0:00 77% 35 km
Mi, 22.05. 23:30 77% 45 km
Mi, 22.05. 23:00 79% 35 km
Mi, 22.05. 22:30 79% 35 km
Mi, 22.05. 22:00 78% 35 km
Ortszeit Niederschlagsmenge Niederschlagsart
Mi, 22.05. 20:00 1 l/m2 in 12 Std. Regen
Mi, 22.05. 14:00 0.9 l/m2 in 6 Std. Regen
Mi, 22.05. 8:00 7 l/m2 in 12 Std. Regen
Mi, 22.05. 2:00 3 l/m2 in 6 Std. Regen
Di, 21.05. 20:00 0.1 l/m2 in 12 Std. Regen
Di, 21.05. 14:00 0.0 l/m2 in 6 Std. -
Di, 21.05. 8:00 0.1 l/m2 in 12 Std. Regen
Di, 21.05. 2:00 0.1 l/m2 in 6 Std. Regen
Ortszeit Niederschlagsmenge Niederschlagsart
Do, 23.05. 1:00 0.0 l/m2 in 1 Std. -
Do, 23.05. 0:50 keine Meldung -
Do, 23.05. 0:40 keine Meldung -
Do, 23.05. 0:30 0.0 l/m2 in 1 Std. -
Do, 23.05. 0:20 keine Meldung -
Do, 23.05. 0:10 keine Meldung -
Do, 23.05. 0:00 0.0 l/m2 in 1 Std. -
Mi, 22.05. 23:30 0.0 l/m2 in 1 Std. -
Mi, 22.05. 23:00 0.0 l/m2 in 1 Std. -
Mi, 22.05. 22:30 0.0 l/m2 in 1 Std. -
Mi, 22.05. 22:00 0.0 l/m2 in 1 Std. -
Ortszeit Stärke Spitze Richtung
km/h Bft. km/h Grad Sektor
Mi, 22.05. 20:00 36 5 54 290° W
Mi, 22.05. 14:00 37 5 54 300° NW
Mi, 22.05. 8:00 35 5 50 290° W
Mi, 22.05. 2:00 31 5 44 270° W
Di, 21.05. 20:00 14 3 18 240° SW
Di, 21.05. 14:00 9 2 22 320° NW
Di, 21.05. 8:00 13 3 31 350° N
Di, 21.05. 2:00 24 4 31 10° N
Ortszeit Stärke Spitze Richtung
km/h Bft. km/h Grad Sektor
Do, 23.05. 1:00 28 4 33 290° W
Do, 23.05. 0:50 28 4 - 290° W
Do, 23.05. 0:40 26 4 - 290° W
Do, 23.05. 0:30 28 4 33 300° NW
Do, 23.05. 0:20 28 4 - 300° NW
Do, 23.05. 0:10 28 4 - 300° NW
Do, 23.05. 0:00 28 4 41 300° NW
Mi, 22.05. 23:30 32 5 40 300° NW
Mi, 22.05. 23:00 32 5 47 290° W
Mi, 22.05. 22:30 37 5 46 290° W
Mi, 22.05. 22:00 37 5 48 290° W
Ortszeit Untergrenze Bedeckung Gattung
total tief tief mittel hoch
Mi, 22.05. 20:00 - 0/8 0/8 - - -
Mi, 22.05. 14:00 330 m 8/8 8/8 - - -
Mi, 22.05. 8:00 270 m 8/8 8/8 - - -
Mi, 22.05. 2:00 120 m 7/8 8/8 - - -
Di, 21.05. 20:00 1500 m 8/8 8/8 - - -
Di, 21.05. 14:00 150 m 8/8 8/8 - - -
Di, 21.05. 8:00 660 m 8/8 7/8 - - -
Di, 21.05. 2:00 1500 m 8/8 8/8 - - -
Ortszeit Bedeckungsgrad in Achtel und Wolkenuntergrenze
Do, 23.05. 1:00 3(630m) 5(10500m)
Do, 23.05. 0:50 3(630m) 5(10500m)
Do, 23.05. 0:40 4(10500m)
Do, 23.05. 0:30 3(10500m) 5(10500m)
Do, 23.05. 0:20 3(10500m)
Do, 23.05. 0:10 1(570m) 3(10500m)
Do, 23.05. 0:00 1(10500m)
Mi, 22.05. 23:30 keine Wolken
Mi, 22.05. 23:00 keine Wolken
Mi, 22.05. 22:30 keine Wolken
Mi, 22.05. 22:00 keine Wolken
Ortszeit Luftdruck NN (hPa) Tendenz (hPa in 3 Std.)
Mi, 22.05. 20:00 1016 + 0,4
Mi, 22.05. 14:00 1015 + 1,6
Mi, 22.05. 8:00 1011 + 1,8
Mi, 22.05. 2:00 1009 + 0,1
Di, 21.05. 20:00 1007 - 0,2
Di, 21.05. 14:00 1007 + 0,4
Di, 21.05. 8:00 1006 + 0,4
Di, 21.05. 2:00 1005 - 0,6
Ortszeit Luftdruck NN (hPa) Tendenz (hPa in 3 Std.)
Do, 23.05. 1:00 1018 + 0,9
Do, 23.05. 0:50 1018 keine Meldung
Do, 23.05. 0:40 1018 keine Meldung
Do, 23.05. 0:30 1018 + 0,9
Do, 23.05. 0:20 1018 keine Meldung
Do, 23.05. 0:10 1018 keine Meldung
Do, 23.05. 0:00 1018 + 1,0
Mi, 22.05. 23:30 1018 + 1,1
Mi, 22.05. 23:00 1017 + 1,3
Mi, 22.05. 22:30 1017 + 1,2
Mi, 22.05. 22:00 1017 + 1,0
Ortszeit Schneehöhe (cm)
Mi, 22.05. 20:00 -
Mi, 22.05. 14:00 -
Mi, 22.05. 8:00 -
Mi, 22.05. 2:00 -
Di, 21.05. 20:00 -
Di, 21.05. 14:00 -
Di, 21.05. 8:00 -
Di, 21.05. 2:00 -
Ortszeit Schneehöhe (cm)
Do, 23.05. 1:00 -
Do, 23.05. 0:50 -
Do, 23.05. 0:40 -
Do, 23.05. 0:30 -
Do, 23.05. 0:20 -
Do, 23.05. 0:10 -
Do, 23.05. 0:00 -
Mi, 22.05. 23:30 -
Mi, 22.05. 23:00 -
Mi, 22.05. 22:30 -
Mi, 22.05. 22:00 -
Link zu dieser Seite / Seite empfehlen

Das Wetter in ...